Time;durP1;ratioP1;P1;durP2;ratioP2;P2;SDS_P1;SDS_P2;PMS_P1;PMS_P2;Temp;Humidity;BMP_temperature;BMP_pressure;BME280_temperature;BME280_humidity;BME280_pressure;Samples;Min_cycle;Max_cycle;Signal;HPM_P1;HPM_P2
2023/04/19 00:00:40;;;;;;;;;;;22.00;90.60;;;;;;5051073;28;19905;-66
2023/04/19 00:03:05;;;;;;;;;;;22.00;90.60;;;;;;5050165;28;19921;-66
2023/04/19 00:05:31;;;;;;;;;;;22.00;90.50;;;;;;5051367;28;19908;-66
2023/04/19 00:07:57;;;;;;;;;;;22.00;90.60;;;;;;5050966;28;19999;-65
2023/04/19 00:10:22;;;;;;;;;;;21.90;90.80;;;;;;5050601;28;20000;-65
2023/04/19 00:12:48;;;;;;;;;;;22.00;91.00;;;;;;5052107;28;20362;-65
2023/04/19 00:15:13;;;;;;;;;;;22.10;91.00;;;;;;5051371;28;19905;-65
2023/04/19 00:17:39;;;;;;;;;;;22.10;90.90;;;;;;5051204;28;19940;-65
2023/04/19 00:20:05;;;;;;;;;;;22.10;90.90;;;;;;5051404;28;19974;-64
2023/04/19 00:22:30;;;;;;;;;;;22.00;90.80;;;;;;5051099;28;20776;-65
2023/04/19 00:24:56;;;;;;;;;;;22.10;90.80;;;;;;5051332;28;19951;-66
2023/04/19 00:27:22;;;;;;;;;;;22.00;90.70;;;;;;5051482;28;19911;-65
2023/04/19 00:29:47;;;;;;;;;;;22.00;90.70;;;;;;5051624;28;19905;-66
2023/04/19 00:32:14;;;;;;;;;;;22.10;90.90;;;;;;5049354;28;19917;-65
2023/04/19 00:34:40;;;;;;;;;;;22.10;90.60;;;;;;5050849;28;19913;-66
2023/04/19 00:37:06;;;;;;;;;;;22.10;90.80;;;;;;5050885;28;19974;-66
2023/04/19 00:39:32;;;;;;;;;;;22.00;90.60;;;;;;5050795;28;19955;-66
2023/04/19 00:41:57;;;;;;;;;;;22.00;90.60;;;;;;5051415;28;20350;-66
2023/04/19 00:44:23;;;;;;;;;;;22.00;90.60;;;;;;5050900;28;19913;-66
2023/04/19 00:46:48;;;;;;;;;;;22.00;90.60;;;;;;5050393;28;19912;-65
2023/04/19 00:49:14;;;;;;;;;;;22.00;90.60;;;;;;5051268;28;20018;-65
2023/04/19 00:51:40;;;;;;;;;;;22.00;90.60;;;;;;5051053;28;19905;-65
2023/04/19 00:54:07;;;;;;;;;;;22.00;90.60;;;;;;5050791;28;19905;-65
2023/04/19 00:56:33;;;;;;;;;;;22.00;90.70;;;;;;5052529;28;20280;-65
2023/04/19 00:58:58;;;;;;;;;;;22.00;90.70;;;;;;5054633;28;20280;-65
2023/04/19 01:01:24;;;;;;;;;;;22.00;90.70;;;;;;5053586;28;19920;-64
2023/04/19 01:03:49;;;;;;;;;;;22.00;90.70;;;;;;5054497;28;19917;-65
2023/04/19 01:06:15;;;;;;;;;;;22.00;90.70;;;;;;5053168;28;19909;-65
2023/04/19 01:08:40;;;;;;;;;;;22.00;90.80;;;;;;5053512;28;20322;-65
2023/04/19 01:11:07;;;;;;;;;;;22.00;90.80;;;;;;5054757;28;19905;-65
2023/04/19 01:13:33;;;;;;;;;;;22.00;90.80;;;;;;5054276;28;19995;-66
2023/04/19 01:15:58;;;;;;;;;;;22.00;90.80;;;;;;5054572;28;19952;-66
2023/04/19 01:18:24;;;;;;;;;;;22.00;90.80;;;;;;5054413;28;19912;-65
2023/04/19 01:20:50;;;;;;;;;;;22.00;90.80;;;;;;5053257;28;19908;-65
2023/04/19 01:23:16;;;;;;;;;;;22.00;90.80;;;;;;5053094;28;19964;-65
2023/04/19 01:25:41;;;;;;;;;;;22.00;90.80;;;;;;5053154;28;20341;-65
2023/04/19 01:28:07;;;;;;;;;;;22.00;90.80;;;;;;5052001;28;20047;-65
2023/04/19 01:30:33;;;;;;;;;;;21.90;90.90;;;;;;5052508;28;20372;-64
2023/04/19 01:32:58;;;;;;;;;;;22.00;90.90;;;;;;5052716;28;19956;-65
2023/04/19 01:35:24;;;;;;;;;;;21.90;90.80;;;;;;5051897;28;19950;-65
2023/04/19 01:37:52;;;;;;;;;;;21.90;90.90;;;;;;5052495;28;19909;-65
2023/04/19 01:40:17;;;;;;;;;;;21.90;90.90;;;;;;5052537;28;19911;-66
2023/04/19 01:42:43;;;;;;;;;;;22.00;90.90;;;;;;5051656;28;19917;-66
2023/04/19 01:45:09;;;;;;;;;;;21.90;90.90;;;;;;5051369;28;20368;-65
2023/04/19 01:47:34;;;;;;;;;;;21.90;90.90;;;;;;5053392;28;19905;-66
2023/04/19 01:50:00;;;;;;;;;;;22.00;91.00;;;;;;5051258;28;19999;-65
2023/04/19 01:52:25;;;;;;;;;;;21.90;91.00;;;;;;5052070;28;19905;-65
2023/04/19 01:54:50;;;;;;;;;;;21.90;91.00;;;;;;5052810;28;19936;-65
2023/04/19 01:57:17;;;;;;;;;;;21.90;91.00;;;;;;5051298;28;19928;-65
2023/04/19 01:59:43;;;;;;;;;;;21.90;91.00;;;;;;5052402;28;19904;-65
2023/04/19 02:02:08;;;;;;;;;;;21.90;91.00;;;;;;5051231;28;19904;-65
2023/04/19 02:04:34;;;;;;;;;;;21.90;91.00;;;;;;5052452;28;19982;-65
2023/04/19 02:07:00;;;;;;;;;;;21.90;91.00;;;;;;5052053;28;19912;-65
2023/04/19 02:09:25;;;;;;;;;;;21.90;91.00;;;;;;5052004;28;19958;-65
2023/04/19 02:11:50;;;;;;;;;;;21.80;91.00;;;;;;5052745;28;19909;-65
2023/04/19 02:14:16;;;;;;;;;;;21.80;91.00;;;;;;5052391;28;19913;-65
2023/04/19 02:16:41;;;;;;;;;;;21.80;91.00;;;;;;5052108;28;19904;-65
2023/04/19 02:19:07;;;;;;;;;;;21.80;91.00;;;;;;5053765;28;19905;-65
2023/04/19 02:21:33;;;;;;;;;;;21.80;91.00;;;;;;5053306;28;19911;-64
2023/04/19 02:23:58;;;;;;;;;;;21.80;91.00;;;;;;5051982;28;19922;-64
2023/04/19 02:26:24;;;;;;;;;;;21.80;91.00;;;;;;5052282;28;19919;-64
2023/04/19 02:28:50;;;;;;;;;;;21.80;91.00;;;;;;5052809;28;19905;-64
2023/04/19 02:31:15;;;;;;;;;;;21.80;91.00;;;;;;5051670;28;19915;-65
2023/04/19 02:33:41;;;;;;;;;;;21.80;91.30;;;;;;5053472;28;19913;-64
2023/04/19 02:36:06;;;;;;;;;;;21.80;91.00;;;;;;5053009;28;19995;-65
2023/04/19 02:38:32;;;;;;;;;;;21.80;91.00;;;;;;5052826;28;20405;-64
2023/04/19 02:40:59;;;;;;;;;;;21.80;90.90;;;;;;5052893;28;20370;-64
2023/04/19 02:43:24;;;;;;;;;;;21.80;90.90;;;;;;5052273;28;19912;-64
2023/04/19 02:45:50;;;;;;;;;;;21.80;90.90;;;;;;5051757;28;19927;-64
2023/04/19 02:48:15;;;;;;;;;;;21.80;90.90;;;;;;5053102;28;19908;-64
2023/04/19 02:50:41;;;;;;;;;;;21.80;90.90;;;;;;5052852;28;19999;-63
2023/04/19 02:53:06;;;;;;;;;;;21.90;90.90;;;;;;5050851;28;19905;-64
2023/04/19 02:55:32;;;;;;;;;;;21.80;90.90;;;;;;5053120;28;19904;-64
2023/04/19 02:57:57;;;;;;;;;;;21.90;90.90;;;;;;5050927;28;19916;-64
2023/04/19 03:00:23;;;;;;;;;;;21.80;90.90;;;;;;5050474;28;19959;-63
2023/04/19 03:02:48;;;;;;;;;;;21.90;90.90;;;;;;5051553;28;19994;-63
2023/04/19 03:05:14;;;;;;;;;;;21.90;90.90;;;;;;5051506;28;19908;-64
2023/04/19 03:07:39;;;;;;;;;;;21.90;90.90;;;;;;5051098;28;19908;-64
2023/04/19 03:10:05;;;;;;;;;;;21.80;90.90;;;;;;5052602;28;19947;-64
2023/04/19 03:12:30;;;;;;;;;;;21.90;90.90;;;;;;5050312;28;19931;-64
2023/04/19 03:14:56;;;;;;;;;;;21.90;90.90;;;;;;5051805;28;19911;-64
2023/04/19 03:17:21;;;;;;;;;;;21.90;90.90;;;;;;5052237;28;19955;-65
2023/04/19 03:19:47;;;;;;;;;;;21.90;90.90;;;;;;5051670;28;19908;-65
2023/04/19 03:22:12;;;;;;;;;;;21.90;90.90;;;;;;5051902;28;20330;-65
2023/04/19 03:24:38;;;;;;;;;;;21.90;90.90;;;;;;5052048;28;19971;-65
2023/04/19 03:27:03;;;;;;;;;;;21.90;90.90;;;;;;5051317;28;19904;-65
2023/04/19 03:29:28;;;;;;;;;;;21.90;90.80;;;;;;5052257;28;19912;-65
2023/04/19 03:31:54;;;;;;;;;;;21.90;90.80;;;;;;5052509;28;19919;-65
2023/04/19 03:34:19;;;;;;;;;;;21.90;90.90;;;;;;5050878;28;20287;-65
2023/04/19 03:36:45;;;;;;;;;;;21.90;90.80;;;;;;5051380;28;19905;-65
2023/04/19 03:39:10;;;;;;;;;;;21.90;90.80;;;;;;5051379;28;19909;-65
2023/04/19 03:41:36;;;;;;;;;;;21.90;90.80;;;;;;5050735;28;19916;-65
2023/04/19 03:44:01;;;;;;;;;;;21.90;90.80;;;;;;5050992;28;19916;-65
2023/04/19 03:46:30;;;;;;;;;;;21.90;90.80;;;;;;5052407;28;20425;-65
2023/04/19 03:48:55;;;;;;;;;;;21.90;90.80;;;;;;5051828;28;19905;-65
2023/04/19 03:51:21;;;;;;;;;;;21.90;90.80;;;;;;5052112;28;19905;-65
2023/04/19 03:53:46;;;;;;;;;;;21.90;90.80;;;;;;5051687;28;20359;-65
2023/04/19 03:56:12;;;;;;;;;;;22.00;90.80;;;;;;5051335;28;19974;-65
2023/04/19 03:58:37;;;;;;;;;;;21.90;90.80;;;;;;5052390;28;19952;-64
2023/04/19 04:01:03;;;;;;;;;;;21.90;90.80;;;;;;5051314;28;19905;-64
2023/04/19 04:03:29;;;;;;;;;;;22.00;90.80;;;;;;5051337;28;19917;-64
2023/04/19 04:05:54;;;;;;;;;;;21.90;90.70;;;;;;5052341;28;19905;-64
2023/04/19 04:08:20;;;;;;;;;;;21.90;90.70;;;;;;5050666;28;19908;-64
2023/04/19 04:10:45;;;;;;;;;;;21.90;90.70;;;;;;5050162;28;19905;-64
2023/04/19 04:13:11;;;;;;;;;;;21.90;90.70;;;;;;5050228;28;20356;-64
2023/04/19 04:15:36;;;;;;;;;;;21.90;90.70;;;;;;5050605;28;20000;-64
2023/04/19 04:18:01;;;;;;;;;;;22.00;90.70;;;;;;5049772;28;19959;-64
2023/04/19 04:20:27;;;;;;;;;;;21.90;90.70;;;;;;5050425;28;19905;-67
2023/04/19 04:22:52;;;;;;;;;;;21.90;90.70;;;;;;5050561;28;19952;-63
2023/04/19 04:25:18;;;;;;;;;;;21.80;90.70;;;;;;5050378;28;20291;-63
2023/04/19 04:27:44;;;;;;;;;;;21.90;90.70;;;;;;5052029;28;19915;-63
2023/04/19 04:30:10;;;;;;;;;;;21.90;90.70;;;;;;5050859;28;19905;-63
2023/04/19 04:32:36;;;;;;;;;;;21.90;90.70;;;;;;5054301;28;19963;-64
2023/04/19 04:35:04;;;;;;;;;;;21.90;90.70;;;;;;5055577;28;19983;-63
2023/04/19 04:37:33;;;;;;;;;;;21.80;90.70;;;;;;5053644;28;19912;-63
2023/04/19 04:39:59;;;;;;;;;;;21.80;90.70;;;;;;5055299;28;20275;-63
2023/04/19 04:42:25;;;;;;;;;;;21.80;90.70;;;;;;5055035;28;19967;-63
2023/04/19 04:44:50;;;;;;;;;;;21.90;90.70;;;;;;5053391;28;19916;-64
2023/04/19 04:47:16;;;;;;;;;;;21.80;90.70;;;;;;5054765;28;19966;-65
2023/04/19 04:49:41;;;;;;;;;;;21.80;90.70;;;;;;5054596;28;19951;-64
2023/04/19 04:52:07;;;;;;;;;;;21.80;90.70;;;;;;5053742;28;19940;-65
2023/04/19 04:54:33;;;;;;;;;;;21.80;90.70;;;;;;5055014;28;19909;-64
2023/04/19 04:56:58;;;;;;;;;;;21.80;90.70;;;;;;5054466;28;19905;-64
2023/04/19 04:59:24;;;;;;;;;;;21.80;90.70;;;;;;5053473;28;19912;-64
2023/04/19 05:01:49;;;;;;;;;;;21.80;90.70;;;;;;5054955;28;19908;-64
2023/04/19 05:04:15;;;;;;;;;;;21.80;90.70;;;;;;5053332;28;19916;-65
2023/04/19 05:06:41;;;;;;;;;;;21.80;90.70;;;;;;5052992;28;19932;-64
2023/04/19 05:09:06;;;;;;;;;;;21.80;90.60;;;;;;5054913;28;19905;-64
2023/04/19 05:11:32;;;;;;;;;;;21.80;90.60;;;;;;5055013;28;19928;-64
2023/04/19 05:13:58;;;;;;;;;;;21.70;90.60;;;;;;5054413;28;19908;-65
2023/04/19 05:16:24;;;;;;;;;;;21.80;90.60;;;;;;5054129;28;20011;-65
2023/04/19 05:18:50;;;;;;;;;;;21.80;90.60;;;;;;5054046;28;19904;-64
2023/04/19 05:21:15;;;;;;;;;;;21.80;90.60;;;;;;5052965;28;19908;-64
2023/04/19 05:23:41;;;;;;;;;;;21.80;90.60;;;;;;5054601;28;20417;-64
2023/04/19 05:26:06;;;;;;;;;;;21.80;90.60;;;;;;5053904;28;19904;-64
2023/04/19 05:28:31;;;;;;;;;;;21.80;90.50;;;;;;5054259;28;20395;-64
2023/04/19 05:30:57;;;;;;;;;;;21.80;90.50;;;;;;5054072;28;20257;-64
2023/04/19 05:33:22;;;;;;;;;;;21.80;90.50;;;;;;5052764;28;19920;-65
2023/04/19 05:35:48;;;;;;;;;;;21.80;90.50;;;;;;5053308;28;20346;-64
2023/04/19 05:38:13;;;;;;;;;;;21.80;90.50;;;;;;5053172;28;19911;-65
2023/04/19 05:40:39;;;;;;;;;;;21.80;90.40;;;;;;5052361;28;19905;-65
2023/04/19 05:43:04;;;;;;;;;;;21.80;90.40;;;;;;5051548;28;19990;-65
2023/04/19 05:45:30;;;;;;;;;;;21.80;90.40;;;;;;5052833;28;19999;-64
2023/04/19 05:47:55;;;;;;;;;;;21.80;90.40;;;;;;5052220;28;19905;-70
2023/04/19 05:50:21;;;;;;;;;;;21.80;90.40;;;;;;5053509;28;19908;-66
2023/04/19 05:52:46;;;;;;;;;;;21.80;90.50;;;;;;5054355;28;20363;-66
2023/04/19 05:55:12;;;;;;;;;;;21.80;90.60;;;;;;5053231;28;19908;-65
2023/04/19 05:57:37;;;;;;;;;;;21.80;90.60;;;;;;5053747;28;19916;-65
2023/04/19 06:00:04;;;;;;;;;;;21.80;90.50;;;;;;5052871;28;19938;-65
2023/04/19 06:02:29;;;;;;;;;;;21.90;90.50;;;;;;5052424;28;19908;-65
2023/04/19 06:04:56;;;;;;;;;;;21.80;90.40;;;;;;5053691;28;19912;-65
2023/04/19 06:07:22;;;;;;;;;;;21.80;90.40;;;;;;5053567;28;19916;-65
2023/04/19 06:09:47;;;;;;;;;;;21.90;90.40;;;;;;5053623;28;20336;-65
2023/04/19 06:12:13;;;;;;;;;;;21.90;90.40;;;;;;5053922;28;19905;-64
2023/04/19 06:14:38;;;;;;;;;;;21.80;90.40;;;;;;5053977;28;19905;-65
2023/04/19 06:17:04;;;;;;;;;;;21.90;90.40;;;;;;5053383;28;19915;-65
2023/04/19 06:19:32;;;;;;;;;;;21.90;90.40;;;;;;5054296;28;19915;-65
2023/04/19 06:21:58;;;;;;;;;;;21.90;90.30;;;;;;5053971;28;19904;-66
2023/04/19 06:24:24;;;;;;;;;;;21.90;90.30;;;;;;5052590;28;19913;-65
2023/04/19 06:26:49;;;;;;;;;;;21.90;90.30;;;;;;5054405;28;19948;-65
2023/04/19 06:29:15;;;;;;;;;;;21.90;90.30;;;;;;5053758;28;19909;-65
2023/04/19 06:31:40;;;;;;;;;;;21.90;90.30;;;;;;5052515;28;19962;-66
2023/04/19 06:34:06;;;;;;;;;;;21.90;90.20;;;;;;5053110;28;19938;-66
2023/04/19 06:36:31;;;;;;;;;;;21.90;90.20;;;;;;5051292;28;19908;-66
2023/04/19 06:38:57;;;;;;;;;;;21.90;90.20;;;;;;5052058;28;19917;-66
2023/04/19 06:41:22;;;;;;;;;;;21.90;90.30;;;;;;5052638;28;20344;-65
2023/04/19 06:43:48;;;;;;;;;;;21.90;90.10;;;;;;5052610;28;19919;-66
2023/04/19 06:46:14;;;;;;;;;;;21.90;90.10;;;;;;5051208;28;20379;-66
2023/04/19 06:48:40;;;;;;;;;;;22.00;90.20;;;;;;5048378;28;19909;-66
2023/04/19 06:51:06;;;;;;;;;;;21.90;90.10;;;;;;5049635;28;20400;-66
2023/04/19 06:53:31;;;;;;;;;;;21.90;90.10;;;;;;5050696;28;19915;-66
2023/04/19 06:55:58;;;;;;;;;;;21.90;90.20;;;;;;5050993;28;19904;-66
2023/04/19 06:58:24;;;;;;;;;;;22.00;90.20;;;;;;5049523;28;19940;-68
2023/04/19 07:00:49;;;;;;;;;;;22.00;90.20;;;;;;5051383;28;20395;-66
2023/04/19 07:03:15;;;;;;;;;;;22.00;90.20;;;;;;5051223;28;19916;-68
2023/04/19 07:05:40;;;;;;;;;;;22.00;90.00;;;;;;5051713;28;19909;-66
2023/04/19 07:08:06;;;;;;;;;;;22.00;90.00;;;;;;5051770;28;19913;-68
2023/04/19 07:10:31;;;;;;;;;;;22.00;89.90;;;;;;5051588;28;19908;-63
2023/04/19 07:12:56;;;;;;;;;;;22.00;89.30;;;;;;5051728;28;20497;-64
2023/04/19 07:15:22;;;;;;;;;;;22.00;89.10;;;;;;5052024;28;20291;-64
2023/04/19 07:17:47;;;;;;;;;;;22.00;89.00;;;;;;5052256;28;20321;-64
2023/04/19 07:20:13;;;;;;;;;;;22.00;88.90;;;;;;5050949;28;20311;-64
2023/04/19 07:22:38;;;;;;;;;;;22.00;88.60;;;;;;5051950;28;19992;-65
2023/04/19 07:25:04;;;;;;;;;;;22.00;88.30;;;;;;5051990;28;19916;-65
2023/04/19 07:27:29;;;;;;;;;;;22.00;87.60;;;;;;5051023;28;19905;-64
2023/04/19 07:29:55;;;;;;;;;;;22.00;86.90;;;;;;5051940;28;20344;-65
2023/04/19 07:32:20;;;;;;;;;;;22.00;87.20;;;;;;5051369;28;20036;-65
2023/04/19 07:34:46;;;;;;;;;;;21.90;87.40;;;;;;5050837;28;20283;-69
2023/04/19 07:37:11;;;;;;;;;;;22.00;87.80;;;;;;5051892;28;20280;-68
2023/04/19 07:39:40;;;;;;;;;;;21.90;87.60;;;;;;5052625;28;20004;-66
2023/04/19 07:42:05;;;;;;;;;;;22.00;87.80;;;;;;5052127;28;19905;-64
2023/04/19 07:44:31;;;;;;;;;;;22.00;87.30;;;;;;5052258;28;19936;-63
2023/04/19 07:46:56;;;;;;;;;;;22.00;87.40;;;;;;5051795;28;19957;-65
2023/04/19 07:49:22;;;;;;;;;;;22.00;87.50;;;;;;5052042;28;19909;-67
2023/04/19 07:51:48;;;;;;;;;;;22.00;86.90;;;;;;5052333;28;20356;-67
2023/04/19 07:54:15;;;;;;;;;;;22.00;87.00;;;;;;5051638;28;19905;-69
2023/04/19 07:56:40;;;;;;;;;;;22.00;86.70;;;;;;5052015;28;19931;-68
2023/04/19 07:59:06;;;;;;;;;;;22.00;86.60;;;;;;5052246;28;19908;-68
2023/04/19 08:01:31;;;;;;;;;;;22.00;85.60;;;;;;5051338;28;19908;-68
2023/04/19 08:03:57;;;;;;;;;;;22.00;86.10;;;;;;5052073;28;19912;-67
2023/04/19 08:06:22;;;;;;;;;;;22.00;86.10;;;;;;5053599;28;19915;-65
2023/04/19 08:08:48;;;;;;;;;;;22.00;85.90;;;;;;5055509;28;19915;-66
2023/04/19 08:11:13;;;;;;;;;;;21.90;85.60;;;;;;5055256;28;19938;-66
2023/04/19 08:13:39;;;;;;;;;;;22.00;85.00;;;;;;5056019;28;19911;-66
2023/04/19 08:16:04;;;;;;;;;;;22.00;84.70;;;;;;5055354;28;19916;-66
2023/04/19 08:18:30;;;;;;;;;;;22.00;84.70;;;;;;5056158;28;19992;-66
2023/04/19 08:20:57;;;;;;;;;;;22.00;84.30;;;;;;5056105;28;19909;-66
2023/04/19 08:23:22;;;;;;;;;;;21.90;84.30;;;;;;5052487;28;20359;-66
2023/04/19 08:25:48;;;;;;;;;;;21.90;84.60;;;;;;5054044;28;19905;-66
2023/04/19 08:28:14;;;;;;;;;;;21.90;84.60;;;;;;5054179;28;19919;-65
2023/04/19 08:30:39;;;;;;;;;;;21.90;84.90;;;;;;5053333;28;20311;-65
2023/04/19 08:33:05;;;;;;;;;;;21.90;85.00;;;;;;5053920;28;20372;-66
2023/04/19 08:35:31;;;;;;;;;;;22.00;84.70;;;;;;5054724;28;20371;-66
2023/04/19 08:37:56;;;;;;;;;;;21.90;84.40;;;;;;5054902;28;20356;-66
2023/04/19 08:40:22;;;;;;;;;;;22.00;84.90;;;;;;5055029;28;19905;-66
2023/04/19 08:42:47;;;;;;;;;;;22.00;84.30;;;;;;5055376;28;19950;-66
2023/04/19 08:45:14;;;;;;;;;;;22.00;84.40;;;;;;5054683;28;19909;-66
2023/04/19 08:47:40;;;;;;;;;;;21.90;84.10;;;;;;5055418;28;20023;-66
2023/04/19 08:50:06;;;;;;;;;;;21.90;84.20;;;;;;5053880;28;19935;-66
2023/04/19 08:52:33;;;;;;;;;;;21.90;84.00;;;;;;5053554;28;19932;-67
2023/04/19 08:55:01;;;;;;;;;;;22.00;83.90;;;;;;5053620;28;19905;-66
2023/04/19 08:57:28;;;;;;;;;;;22.00;83.80;;;;;;5052996;28;20299;-66
2023/04/19 08:59:54;;;;;;;;;;;22.00;83.60;;;;;;5051922;28;19991;-66
2023/04/19 09:02:20;;;;;;;;;;;21.90;83.50;;;;;;5052949;28;20428;-66
2023/04/19 09:04:45;;;;;;;;;;;21.90;83.50;;;;;;5052497;28;19923;-66
2023/04/19 09:07:24;;;;;;;;;;;22.00;83.50;;;;;;5054791;28;19958;-66
2023/04/19 09:10:03;;;;;;;;;;;21.90;83.20;;;;;;5055165;28;20349;-66
2023/04/19 09:12:29;;;;;;;;;;;21.90;83.40;;;;;;5054361;28;19962;-66
2023/04/19 09:14:54;;;;;;;;;;;21.90;83.50;;;;;;5054822;28;20423;-66
2023/04/19 09:17:19;;;;;;;;;;;21.90;83.10;;;;;;5053840;28;19984;-66
2023/04/19 09:19:46;;;;;;;;;;;22.00;83.20;;;;;;5054383;28;19928;-66
2023/04/19 09:22:12;;;;;;;;;;;21.90;82.90;;;;;;5054807;28;19943;-66
2023/04/19 09:24:38;;;;;;;;;;;22.00;82.90;;;;;;5054804;28;19913;-66
2023/04/19 09:27:03;;;;;;;;;;;21.90;82.80;;;;;;5053921;28;19931;-66
2023/04/19 09:29:29;;;;;;;;;;;21.90;82.90;;;;;;5054727;28;19905;-66
2023/04/19 09:31:57;;;;;;;;;;;21.90;82.00;;;;;;5054739;28;19963;-66
2023/04/19 09:34:23;;;;;;;;;;;21.90;82.40;;;;;;5053734;28;19904;-66
2023/04/19 09:36:48;;;;;;;;;;;21.90;82.30;;;;;;5054745;28;20267;-66
2023/04/19 09:39:26;;;;;;;;;;;22.00;82.20;;;;;;5054228;28;19905;-66
2023/04/19 09:41:52;;;;;;;;;;;21.90;82.20;;;;;;5054518;28;19950;-66
2023/04/19 09:44:18;;;;;;;;;;;21.90;81.70;;;;;;5053893;28;20373;-66
2023/04/19 09:46:45;;;;;;;;;;;21.90;81.80;;;;;;5053921;28;19912;-65
2023/04/19 09:49:20;;;;;;;;;;;21.90;81.10;;;;;;5053947;28;20399;-66
2023/04/19 09:51:46;;;;;;;;;;;21.90;81.50;;;;;;5054352;28;20360;-66
2023/04/19 09:54:12;;;;;;;;;;;21.90;81.10;;;;;;5053285;28;20287;-66
2023/04/19 09:56:38;;;;;;;;;;;21.90;81.10;;;;;;5054039;28;19904;-66
2023/04/19 09:59:04;;;;;;;;;;;21.90;80.90;;;;;;5054055;28;20002;-66
2023/04/19 10:01:33;;;;;;;;;;;21.90;80.90;;;;;;5053604;28;19911;-66
2023/04/19 10:03:58;;;;;;;;;;;21.90;81.10;;;;;;5054176;28;19983;-66
2023/04/19 10:06:24;;;;;;;;;;;21.80;80.80;;;;;;5053874;28;20360;-66
2023/04/19 10:08:52;;;;;;;;;;;21.90;80.80;;;;;;5053279;28;19927;-65
2023/04/19 10:11:21;;;;;;;;;;;21.80;80.40;;;;;;5053013;28;19904;-65
2023/04/19 10:13:48;;;;;;;5.88;2.10;;;21.90;80.30;;;;;;5053377;28;19909;-69
2023/04/19 10:16:14;;;;;;;3.80;1.92;;;21.90;80.50;;;;;;5052398;28;20033;-69
2023/04/19 10:18:40;;;;;;;3.17;2.00;;;21.90;80.20;;;;;;5052669;28;20117;-68
2023/04/19 10:21:09;;;;;;;2.30;2.10;;;21.90;80.40;;;;;;5053062;28;20031;-69
2023/04/19 10:23:36;;;;;;;6.22;1.98;;;22.00;80.90;;;;;;5052524;28;20037;-69
2023/04/19 10:26:01;;;;;;;2.72;1.98;;;22.00;81.00;;;;;;5052917;28;20028;-69
2023/04/19 10:28:28;;;;;;;2.05;1.83;;;22.00;80.90;;;;;;5052862;28;20025;-69
2023/04/19 10:31:00;;;;;;;4.20;1.88;;;21.90;80.80;;;;;;5051263;28;20029;-69
2023/04/19 10:33:27;;;;;;;2.45;2.00;;;22.00;80.80;;;;;;5051067;28;20045;-69
2023/04/19 10:35:58;;;;;;;2.83;1.85;;;21.90;80.70;;;;;;5050336;28;20025;-69
2023/04/19 10:38:43;;;;;;;3.20;1.90;;;22.00;80.80;;;;;;5050431;28;20029;-69
2023/04/19 10:41:13;;;;;;;4.68;2.05;;;22.00;80.70;;;;;;5050806;28;20111;-68
2023/04/19 10:43:44;;;;;;;2.42;1.90;;;22.00;80.70;;;;;;5050340;28;20112;-65
2023/04/19 10:46:21;;;;;;;3.65;1.70;;;22.00;80.10;;;;;;5052159;28;20029;-66
2023/04/19 10:48:52;;;;;;;4.25;1.92;;;22.00;80.30;;;;;;5052374;28;20028;-68
2023/04/19 10:51:26;;;;;;;6.18;3.28;;;22.00;80.60;;;;;;5051373;28;20028;-68
2023/04/19 10:54:05;;;;;;;7.22;4.55;;;22.00;80.70;;;;;;5052858;28;20029;-68
2023/04/19 10:56:33;;;;;;;9.73;5.57;;;21.90;81.20;;;;;;5052466;28;20287;-68
2023/04/19 10:59:09;;;;;;;7.13;5.53;;;22.00;82.00;;;;;;5051889;28;20380;-68
2023/04/19 11:01:39;;;;;;;11.00;5.63;;;21.90;82.50;;;;;;5052647;28;20025;-69
2023/04/19 11:04:06;;;;;;;8.15;4.57;;;22.00;83.60;;;;;;5051312;28;20055;-71
2023/04/19 11:06:32;;;;;;;7.15;4.40;;;22.00;84.50;;;;;;5052826;28;20029;-71
2023/04/19 11:08:59;;;;;;;10.13;5.03;;;22.00;84.30;;;;;;5052706;28;20132;-71
2023/04/19 11:11:25;;;;;;;8.98;4.50;;;22.00;84.30;;;;;;5051089;28;20116;-71
2023/04/19 11:13:54;;;;;;;7.90;3.83;;;22.00;84.10;;;;;;5052429;28;20150;-71
2023/04/19 11:16:20;;;;;;;11.35;4.40;;;22.00;84.10;;;;;;5048330;28;20025;-71
2023/04/19 11:18:45;;;;;;;4.38;3.40;;;22.00;84.10;;;;;;5052819;28;20032;-71
2023/04/19 11:21:16;;;;;;;5.80;3.63;;;22.00;84.00;;;;;;5049762;28;20025;-69
2023/04/19 11:23:42;;;;;;;5.38;3.47;;;22.00;83.90;;;;;;5049832;28;20124;-71
2023/04/19 11:26:10;;;;;;;5.07;3.30;;;22.00;83.80;;;;;;5050079;28;20099;-70
2023/04/19 11:28:37;;;;;;;4.00;3.10;;;22.00;83.70;;;;;;5050964;28;20140;-69
2023/04/19 11:31:03;;;;;;;7.03;3.25;;;22.00;83.40;;;;;;5048116;28;20123;-70
2023/04/19 11:33:33;;;;;;;6.07;3.50;;;22.00;83.40;;;;;;5048711;28;20528;-69
2023/04/19 11:35:58;;;;;;;4.28;2.70;;;22.00;83.80;;;;;;5049616;28;20027;-69
2023/04/19 11:38:27;;;;;;;5.07;2.85;;;21.90;83.30;;;;;;5051101;28;20028;-69
2023/04/19 11:41:03;;;;;;;3.78;2.38;;;21.90;83.00;;;;;;5050714;28;20029;-68
2023/04/19 11:43:35;;;;;;;3.80;2.22;;;22.00;82.70;;;;;;5051601;28;20033;-69
2023/04/19 11:46:09;;;;;;;5.03;2.83;;;22.00;82.30;;;;;;5049988;28;20033;-68
2023/04/19 11:48:35;;;;;;;3.42;2.40;;;21.90;82.00;;;;;;5049708;28;20516;-68
2023/04/19 11:51:02;;;;;;;4.68;2.30;;;21.90;81.60;;;;;;5049733;28;20029;-68
2023/04/19 11:53:29;;;;;;;3.13;2.50;;;22.00;81.40;;;;;;5048962;28;20025;-69
2023/04/19 11:56:02;;;;;;;4.55;2.05;;;21.90;81.70;;;;;;5050232;28;20021;-68
2023/04/19 11:58:32;;;;;;;2.55;2.17;;;21.90;80.90;;;;;;5049907;28;20389;-69
2023/04/19 12:01:07;;;;;;;2.35;2.05;;;21.90;80.40;;;;;;5049114;28;20443;-69
2023/04/19 12:03:53;;;;;;;2.72;2.10;;;21.90;80.10;;;;;;5049674;28;20056;-69
2023/04/19 12:06:24;;;;;;;3.50;1.70;;;21.90;79.90;;;;;;5049154;28;20690;-69
2023/04/19 12:08:51;;;;;;;2.25;2.03;;;21.90;79.70;;;;;;5050526;28;20033;-68
2023/04/19 12:11:20;;;;;;;4.65;1.70;;;21.80;79.50;;;;;;5051511;28;20033;-69
2023/04/19 12:13:46;;;;;;;3.22;1.98;;;21.90;79.40;;;;;;5051728;28;20025;-68
2023/04/19 12:16:12;;;;;;;3.80;2.15;;;21.80;79.00;;;;;;5050948;28;20610;-69
2023/04/19 12:18:56;;;;;;;2.58;1.67;;;21.80;79.10;;;;;;5052055;28;20357;-69
2023/04/19 12:21:29;;;;;;;2.63;1.90;;;21.80;78.90;;;;;;5050619;28;20559;-69
2023/04/19 12:23:56;;;;;;;2.55;1.42;;;21.90;78.60;;;;;;5051578;28;20527;-69
2023/04/19 12:26:23;;;;;;;2.33;1.50;;;21.80;78.40;;;;;;5051312;28;20029;-69
2023/04/19 12:28:48;;;;;;;2.72;1.85;;;21.80;78.30;;;;;;5050899;28;20061;-69
2023/04/19 12:31:15;;;;;;;2.33;1.88;;;21.80;78.20;;;;;;5051617;28;20052;-69
2023/04/19 12:33:40;;;;;;;4.97;2.08;;;21.80;77.80;;;;;;5051595;28;20047;-69
2023/04/19 12:36:06;;;;;;;2.10;1.40;;;21.80;77.80;;;;;;5050689;28;20021;-69
2023/04/19 12:38:32;;;;;;;2.35;1.85;;;21.80;77.60;;;;;;5051453;28;20408;-69
2023/04/19 12:40:57;;;;;;;1.80;1.52;;;21.80;77.50;;;;;;5051560;28;20053;-69
2023/04/19 12:43:23;;;;;;;1.98;1.60;;;21.80;77.40;;;;;;5050339;28;20083;-68
2023/04/19 12:45:48;;;;;;;1.80;1.40;;;21.90;77.20;;;;;;5051748;28;20067;-69
2023/04/19 12:48:14;;;;;;;2.72;1.40;;;21.80;76.90;;;;;;5051267;28;20025;-69
2023/04/19 12:50:39;;;;;;;1.85;1.75;;;21.80;76.70;;;;;;5050719;28;20029;-69
2023/04/19 12:53:05;;;;;;;2.28;2.05;;;21.80;76.30;;;;;;5053008;28;20415;-69
2023/04/19 12:55:31;;;;;;;1.98;1.83;;;21.80;76.30;;;;;;5054860;28;20028;-69
2023/04/19 12:57:57;;;;;;;1.70;1.50;;;21.70;76.00;;;;;;5054261;28;20087;-69
2023/04/19 13:00:23;;;;;;;4.25;1.50;;;21.80;76.10;;;;;;5054708;28;20468;-69
2023/04/19 13:02:49;;;;;;;1.60;1.45;;;21.70;76.00;;;;;;5054917;28;20037;-69
2023/04/19 13:05:14;;;;;;;2.30;1.38;;;21.80;75.90;;;;;;5053886;28;20106;-69
2023/04/19 13:07:40;;;;;;;3.13;1.38;;;21.80;75.80;;;;;;5054759;28;20091;-69
2023/04/19 13:10:06;;;;;;;3.15;1.40;;;21.80;75.60;;;;;;5054518;28;20127;-69
2023/04/19 13:12:31;;;;;;;3.50;1.80;;;21.80;75.60;;;;;;5053811;28;20027;-69
2023/04/19 13:14:57;;;;;;;1.60;1.50;;;21.80;75.40;;;;;;5054896;28;20078;-68
2023/04/19 13:17:23;;;;;;;2.40;1.70;;;21.80;75.30;;;;;;5053742;28;20025;-69
2023/04/19 13:19:48;;;;;;;1.45;1.35;;;21.80;75.30;;;;;;5054795;28;20021;-69
2023/04/19 13:22:17;;;;;;;2.70;1.50;;;21.80;75.20;;;;;;5054176;28;20056;-69
2023/04/19 13:24:42;;;;;;;1.98;1.73;;;21.80;75.10;;;;;;5053752;28;20041;-68
2023/04/19 13:27:08;;;;;;;1.92;1.58;;;21.80;75.10;;;;;;5054022;28;20091;-69
2023/04/19 13:29:33;;;;;;;2.45;1.60;;;21.80;74.90;;;;;;5054432;28;20021;-69
2023/04/19 13:31:59;;;;;;;3.03;1.60;;;21.80;74.70;;;;;;5053636;28;20556;-69
2023/04/19 13:34:25;;;;;;;1.90;1.42;;;21.80;74.60;;;;;;5054220;28;20538;-69
2023/04/19 13:36:50;;;;;;;2.63;1.70;;;21.80;74.40;;;;;;5054270;28;20106;-69
2023/04/19 13:39:16;;;;;;;2.42;1.83;;;21.80;74.40;;;;;;5053237;28;20495;-69
2023/04/19 13:41:42;;;;;;;2.20;1.67;;;21.80;74.30;;;;;;5054192;28;20028;-69
2023/04/19 13:44:07;;;;;;;3.83;1.70;;;21.80;74.30;;;;;;5053682;28;20045;-68
2023/04/19 13:46:33;;;;;;;1.60;1.50;;;21.80;74.40;;;;;;5053396;28;20025;-69